createdAt,value
2023-01-06T00:00:19.956Z,8.23
2023-01-06T00:05:22.092Z,8.18
2023-01-06T00:10:24.192Z,10.02
2023-01-06T00:15:26.184Z,11.13
2023-01-06T00:20:28.478Z,10.13
2023-01-06T00:25:30.311Z,10.65
2023-01-06T00:30:32.125Z,7.55
2023-01-06T00:35:33.870Z,15.05
2023-01-06T00:40:37.336Z,9.15
2023-01-06T00:45:40.599Z,8.98
2023-01-06T00:50:43.497Z,10.07
2023-01-06T00:55:45.234Z,16.52
2023-01-06T01:00:46.987Z,12.27
2023-01-06T01:05:48.767Z,17.40
2023-01-06T01:10:50.502Z,10.95
2023-01-06T01:15:52.285Z,9.38
2023-01-06T01:20:54.020Z,9.15
2023-01-06T01:25:57.245Z,11.93
2023-01-06T01:31:03.420Z,10.48
2023-01-06T01:36:06.647Z,7.63
2023-01-06T01:41:13.672Z,10.98
2023-01-06T01:46:21.853Z,10.47
2023-01-06T01:51:28.627Z,8.48
2023-01-06T01:56:33.669Z,8.77
2023-01-06T02:01:35.763Z,11.00
2023-01-06T02:06:40.234Z,9.50
2023-01-06T02:11:44.046Z,6.07
2023-01-06T02:17:17.765Z,9.98
2023-01-06T02:23:00.636Z,6.80
2023-01-06T02:28:26.387Z,11.85
2023-01-06T02:33:49.348Z,11.70
2023-01-06T02:39:25.000Z,12.93
2023-01-06T02:44:45.120Z,7.65
2023-01-06T02:50:37.569Z,12.07
2023-01-06T02:55:46.130Z,19.58
2023-01-06T03:00:59.142Z,18.35
2023-01-06T03:06:11.430Z,15.63
2023-01-06T03:11:14.421Z,15.73
2023-01-06T03:16:16.764Z,13.10
2023-01-06T03:21:22.586Z,9.85
2023-01-06T03:26:25.932Z,8.05
2023-01-06T03:32:04.327Z,9.68
2023-01-06T03:37:09.202Z,13.55
2023-01-06T03:42:52.019Z,19.27
2023-01-06T03:48:08.696Z,8.32
2023-01-06T03:53:30.266Z,8.60
2023-01-06T03:58:34.830Z,11.75
2023-01-06T04:03:37.524Z,9.27
2023-01-06T04:08:39.522Z,18.88
2023-01-06T04:13:41.337Z,11.82
2023-01-06T04:18:43.209Z,15.63
2023-01-06T04:23:45.078Z,11.73
2023-01-06T04:28:47.856Z,14.43
2023-01-06T04:33:49.953Z,9.68
2023-01-06T04:38:52.027Z,14.18
2023-01-06T04:43:53.751Z,14.50
2023-01-06T04:48:55.471Z,13.65
2023-01-06T04:53:57.255Z,9.55
2023-01-06T04:58:59.054Z,11.88
2023-01-06T05:04:02.220Z,7.45
2023-01-06T05:09:04.120Z,13.32
2023-01-06T05:14:05.861Z,11.15
2023-01-06T05:19:07.627Z,9.98
2023-01-06T05:24:10.053Z,10.25
2023-01-06T05:29:17.510Z,7.40
2023-01-06T05:34:19.327Z,10.70
2023-01-06T05:39:21.058Z,12.65
2023-01-06T05:44:22.984Z,6.90
2023-01-06T05:49:24.758Z,15.65
2023-01-06T05:54:26.454Z,15.95
2023-01-06T05:59:28.169Z,45.50
2023-01-06T06:04:29.926Z,29.08
2023-01-06T06:09:31.701Z,18.65
2023-01-06T06:14:33.457Z,19.40
2023-01-06T06:19:35.178Z,17.15
2023-01-06T06:24:36.926Z,12.27
2023-01-06T06:29:38.642Z,11.40
2023-01-06T06:34:40.468Z,13.93
2023-01-06T06:39:42.180Z,15.57
2023-01-06T06:44:43.914Z,18.23
2023-01-06T06:49:45.681Z,15.57
2023-01-06T06:54:47.411Z,12.15
2023-01-06T06:59:49.318Z,15.10
2023-01-06T07:04:51.141Z,15.57
2023-01-06T07:09:52.938Z,18.50
2023-01-06T07:14:54.653Z,19.02
2023-01-06T07:19:56.355Z,11.60
2023-01-06T07:24:58.078Z,13.57
2023-01-06T07:29:59.950Z,11.38
2023-01-06T07:35:01.765Z,16.10
2023-01-06T07:40:03.805Z,15.05
2023-01-06T07:45:07.569Z,12.02
2023-01-06T07:50:09.445Z,13.57
2023-01-06T07:55:11.158Z,11.63
2023-01-06T08:00:13.418Z,22.52
2023-01-06T08:05:15.682Z,26.98
2023-01-06T08:10:17.507Z,21.58
2023-01-06T08:15:19.239Z,15.88
2023-01-06T08:20:21.410Z,17.17
2023-01-06T08:25:23.183Z,14.57
2023-01-06T08:30:24.886Z,22.85
2023-01-06T08:35:27.643Z,22.85
2023-01-06T08:40:29.381Z,55.13
2023-01-06T08:45:31.125Z,32.65
2023-01-06T08:50:32.834Z,16.65
2023-01-06T08:55:37.660Z,16.30
2023-01-06T09:00:43.438Z,13.02
2023-01-06T09:05:55.575Z,16.38
2023-01-06T09:10:57.309Z,16.50
2023-01-06T09:15:59.107Z,25.88
2023-01-06T09:21:01.457Z,17.40
2023-01-06T09:26:03.325Z,22.45
2023-01-06T09:31:06.344Z,25.50
2023-01-06T09:36:08.362Z,26.05
2023-01-06T09:41:31.678Z,25.42
2023-01-06T09:46:37.410Z,24.27
2023-01-06T09:51:39.277Z,28.40
2023-01-06T09:56:44.195Z,27.52
2023-01-06T10:01:48.961Z,25.05
2023-01-06T10:07:29.639Z,20.48
2023-01-06T10:12:50.118Z,25.50
2023-01-06T10:18:39.965Z,32.35
2023-01-06T10:24:21.500Z,26.92
2023-01-06T10:29:28.278Z,26.88
2023-01-06T10:34:32.437Z,26.38
2023-01-06T10:39:36.685Z,26.60
2023-01-06T10:44:38.408Z,30.73
2023-01-06T10:49:40.236Z,27.65
2023-01-06T10:54:43.236Z,24.08
2023-01-06T11:00:14.921Z,25.60
2023-01-06T11:05:26.051Z,27.60
2023-01-06T11:10:32.268Z,30.63
2023-01-06T11:15:41.268Z,19.48
2023-01-06T11:20:43.237Z,28.10
2023-01-06T11:26:04.829Z,29.40
2023-01-06T11:31:14.150Z,25.70
2023-01-06T11:36:16.843Z,25.35
2023-01-06T11:41:30.893Z,21.23
2023-01-06T11:46:32.963Z,27.33
2023-01-06T11:51:43.856Z,31.27
2023-01-06T11:56:57.904Z,24.45
2023-01-06T12:02:02.580Z,16.42
2023-01-06T12:07:32.447Z,15.65
2023-01-06T12:12:34.244Z,15.13
2023-01-06T12:17:47.958Z,16.85
2023-01-06T12:22:58.943Z,16.05
2023-01-06T12:28:05.496Z,18.30
2023-01-06T12:33:18.765Z,13.30
2023-01-06T12:38:57.154Z,16.88
2023-01-06T12:44:22.621Z,18.85
2023-01-06T12:49:43.259Z,14.73
2023-01-06T12:54:53.105Z,12.35
2023-01-06T13:00:01.189Z,13.77
2023-01-06T13:05:24.483Z,12.73
2023-01-06T13:10:38.417Z,13.13
2023-01-06T13:15:44.517Z,13.55
2023-01-06T13:21:03.762Z,16.10
2023-01-06T13:26:17.199Z,15.32
2023-01-06T13:31:45.180Z,18.38
2023-01-06T13:36:58.830Z,16.92
2023-01-06T13:42:03.363Z,17.23
2023-01-06T13:47:12.568Z,17.42
2023-01-06T13:52:19.611Z,18.67
2023-01-06T13:57:21.342Z,17.67
2023-01-06T14:02:52.301Z,16.33
2023-01-06T14:08:03.175Z,16.80
2023-01-06T14:13:19.071Z,19.27
2023-01-06T14:18:52.165Z,15.10
2023-01-06T14:23:58.617Z,15.05
2023-01-06T14:29:38.914Z,17.73
2023-01-06T14:35:21.809Z,16.58
2023-01-06T14:40:32.610Z,14.38
2023-01-06T14:45:39.328Z,14.50
2023-01-06T14:50:48.893Z,14.55
2023-01-06T14:55:51.488Z,13.35
2023-01-06T15:00:53.644Z,16.55
2023-01-06T15:06:20.873Z,18.20
2023-01-06T15:11:28.673Z,15.10
2023-01-06T15:16:37.709Z,17.67
2023-01-06T15:21:41.670Z,17.25
2023-01-06T15:26:43.406Z,31.58
2023-01-06T15:31:46.586Z,22.15
2023-01-06T15:36:52.188Z,18.55
2023-01-06T15:41:55.107Z,20.90
2023-01-06T15:47:11.942Z,18.45
2023-01-06T15:52:26.869Z,12.35
2023-01-06T15:57:33.235Z,11.65
2023-01-06T16:02:35.396Z,11.88
2023-01-06T16:07:40.416Z,11.13
2023-01-06T16:12:42.265Z,11.30
2023-01-06T16:17:47.359Z,15.77
2023-01-06T16:22:54.772Z,12.85
2023-01-06T16:27:59.191Z,17.20
2023-01-06T16:33:01.113Z,12.93
2023-01-06T16:38:03.466Z,12.23
2023-01-06T16:43:05.268Z,10.98
2023-01-06T16:48:07.090Z,11.13
2023-01-06T16:53:27.679Z,12.30
2023-01-06T16:58:32.796Z,17.42
2023-01-06T17:03:38.196Z,15.20
2023-01-06T17:08:40.595Z,19.98
2023-01-06T17:13:46.830Z,17.63
2023-01-06T17:18:53.418Z,16.50
2023-01-06T17:24:12.578Z,18.27
2023-01-06T17:29:16.866Z,17.45
2023-01-06T17:34:29.425Z,17.95
2023-01-06T17:39:37.292Z,20.02
2023-01-06T17:49:43.740Z,16.98
2023-01-06T17:55:15.785Z,18.27
2023-01-06T18:00:24.635Z,17.95
2023-01-06T18:05:26.471Z,23.85
2023-01-06T18:10:28.383Z,42.30
2023-01-06T18:15:33.235Z,29.52
2023-01-06T18:20:34.968Z,23.48
2023-01-06T18:25:36.732Z,20.40
2023-01-06T18:30:38.659Z,21.48
2023-01-06T18:35:40.495Z,22.55
2023-01-06T18:40:44.618Z,20.35
2023-01-06T18:45:46.508Z,22.15
2023-01-06T18:50:50.741Z,25.15
2023-01-06T18:56:04.460Z,18.98
2023-01-06T19:01:19.533Z,24.17
2023-01-06T19:06:35.807Z,21.27
2023-01-06T19:11:37.889Z,22.67
2023-01-06T19:16:51.218Z,18.35
2023-01-06T19:22:00.222Z,17.75
2023-01-06T19:27:02.155Z,20.77
2023-01-06T19:32:13.818Z,23.20
2023-01-06T19:37:17.913Z,17.90
2023-01-06T19:42:27.326Z,17.65
2023-01-06T19:47:35.716Z,19.23
2023-01-06T19:52:39.532Z,12.70
2023-01-06T19:57:44.306Z,15.05
2023-01-06T20:02:46.733Z,17.23
2023-01-06T20:07:48.618Z,14.30
2023-01-06T20:12:50.470Z,19.92
2023-01-06T20:17:52.283Z,12.88
2023-01-06T20:22:54.114Z,13.75
2023-01-06T20:27:56.006Z,14.27
2023-01-06T20:32:57.776Z,18.00
2023-01-06T20:37:59.617Z,21.45
2023-01-06T20:43:01.467Z,16.33
2023-01-06T20:48:03.502Z,10.75
2023-01-06T20:53:05.583Z,13.02
2023-01-06T20:58:07.579Z,13.20
2023-01-06T21:03:09.396Z,12.38
2023-01-06T21:08:11.231Z,15.50
2023-01-06T21:13:13.027Z,11.32
2023-01-06T21:18:14.764Z,12.10
2023-01-06T21:23:16.735Z,12.90
2023-01-06T21:28:18.548Z,13.02
2023-01-06T21:33:21.664Z,16.00
2023-01-06T21:38:23.696Z,12.75
2023-01-06T21:43:25.438Z,17.15
2023-01-06T21:48:27.173Z,13.55
2023-01-06T21:53:30.829Z,13.85
2023-01-06T21:58:32.648Z,12.90
2023-01-06T22:03:34.735Z,12.85
2023-01-06T22:08:36.903Z,14.73
2023-01-06T22:13:40.251Z,12.25
2023-01-06T22:18:42.941Z,12.73
2023-01-06T22:23:44.807Z,12.60
2023-01-06T22:28:46.541Z,10.50
2023-01-06T22:33:48.453Z,10.90
2023-01-06T22:38:51.118Z,12.77
2023-01-06T22:43:52.880Z,14.00
2023-01-06T22:48:54.742Z,11.95
2023-01-06T22:53:57.115Z,12.38
2023-01-06T22:58:59.065Z,10.48
2023-01-06T23:04:03.109Z,10.57
2023-01-06T23:09:04.841Z,12.30
2023-01-06T23:14:07.211Z,15.52
2023-01-06T23:19:12.823Z,12.20
2023-01-06T23:24:14.626Z,12.10
2023-01-06T23:29:16.430Z,18.05
2023-01-06T23:34:18.894Z,12.48
2023-01-06T23:39:20.727Z,14.73
2023-01-06T23:44:22.461Z,9.32
2023-01-06T23:49:24.210Z,11.60
2023-01-06T23:54:25.912Z,12.25
2023-01-06T23:59:27.637Z,13.93
